createdAt,value
2018-09-05T00:00:57.384Z,100483.80
2018-09-05T00:03:25.725Z,100487.09
2018-09-05T00:05:53.938Z,100489.80
2018-09-05T00:08:22.022Z,100491.14
2018-09-05T00:10:50.294Z,100484.61
2018-09-05T00:13:18.619Z,100488.68
2018-09-05T00:15:46.760Z,100493.30
2018-09-05T00:18:15.079Z,100492.47
2018-09-05T00:20:43.295Z,100491.37
2018-09-05T00:23:11.614Z,100488.37
2018-09-05T00:25:39.799Z,100482.91
2018-09-05T00:28:08.838Z,100484.50
2018-09-05T00:30:37.002Z,100490.81
2018-09-05T00:33:05.497Z,100488.34
2018-09-05T00:35:33.667Z,100487.54
2018-09-05T00:38:01.982Z,100481.27
2018-09-05T00:40:30.184Z,100493.56
2018-09-05T00:42:58.460Z,100489.42
2018-09-05T00:45:26.668Z,100490.25
2018-09-05T00:47:55.019Z,100495.37
2018-09-05T00:50:30.037Z,100493.50
2018-09-05T00:52:58.353Z,100488.55
2018-09-05T00:55:26.951Z,100487.20
2018-09-05T00:57:55.212Z,100490.76
2018-09-05T01:00:23.513Z,100484.20
2018-09-05T01:02:51.833Z,100484.95
2018-09-05T01:05:20.437Z,100478.98
2018-09-05T01:07:48.733Z,100481.69
2018-09-05T01:10:17.053Z,100477.27
2018-09-05T01:12:45.573Z,100484.91
2018-09-05T01:15:13.927Z,100481.31
2018-09-05T01:17:42.285Z,100485.64
2018-09-05T01:20:11.721Z,100484.52
2018-09-05T01:22:39.968Z,100493.27
2018-09-05T01:25:08.419Z,100482.78
2018-09-05T01:27:37.029Z,100481.88
2018-09-05T01:30:05.924Z,100490.59
2018-09-05T01:32:34.131Z,100488.13
2018-09-05T01:35:02.482Z,100483.97
2018-09-05T01:37:30.623Z,100489.38
2018-09-05T01:39:58.895Z,100491.54
2018-09-05T01:42:27.106Z,100491.49
2018-09-05T01:44:55.342Z,100496.38
2018-09-05T01:47:23.573Z,100494.09
2018-09-05T01:49:51.860Z,100495.23
2018-09-05T01:52:20.071Z,100500.11
2018-09-05T01:54:48.347Z,100494.26
2018-09-05T01:57:16.512Z,100494.52
2018-09-05T01:59:44.762Z,100490.34
2018-09-05T02:02:13.488Z,100494.69
2018-09-05T02:04:41.900Z,100497.09
2018-09-05T02:07:10.056Z,100489.84
2018-09-05T02:09:38.200Z,100495.91
2018-09-05T02:12:06.471Z,100494.32
2018-09-05T02:14:34.750Z,100491.81
2018-09-05T02:17:02.987Z,100492.57
2018-09-05T02:19:31.260Z,100497.19
2018-09-05T02:21:59.544Z,100493.36
2018-09-05T02:24:27.863Z,100496.55
2018-09-05T02:26:56.503Z,100496.28
2018-09-05T02:29:25.865Z,100497.97
2018-09-05T02:34:21.682Z,100503.41
2018-09-05T02:36:49.972Z,100511.27
2018-09-05T02:39:18.387Z,100509.59
2018-09-05T02:41:47.389Z,100500.50
2018-09-05T02:44:18.710Z,100510.52
2018-09-05T02:46:47.587Z,100509.16
2018-09-05T02:49:15.901Z,100511.63
2018-09-05T02:51:44.087Z,100507.93
2018-09-05T02:54:18.985Z,100505.91
2018-09-05T02:56:47.536Z,100508.25
2018-09-05T02:59:15.984Z,100503.91
2018-09-05T03:01:44.428Z,100503.12
2018-09-05T03:04:12.850Z,100508.77
2018-09-05T03:06:41.099Z,100505.64
2018-09-05T03:09:09.300Z,100512.76
2018-09-05T03:11:37.620Z,100504.33
2018-09-05T03:14:05.881Z,100506.73
2018-09-05T03:16:34.233Z,100509.47
2018-09-05T03:19:04.108Z,100505.91
2018-09-05T03:21:30.563Z,100512.45
2018-09-05T03:23:58.702Z,100509.95
2018-09-05T03:26:27.251Z,100510.19
2018-09-05T03:28:55.547Z,100512.66
2018-09-05T03:31:30.315Z,100511.30
2018-09-05T03:33:58.573Z,100517.25
2018-09-05T03:36:26.815Z,100514.73
2018-09-05T03:38:54.929Z,100518.18
2018-09-05T03:41:23.267Z,100516.55
2018-09-05T03:43:51.615Z,100521.22
2018-09-05T03:46:19.873Z,100526.45
2018-09-05T03:48:48.416Z,100518.30
2018-09-05T03:51:16.551Z,100518.63
2018-09-05T03:53:44.696Z,100525.03
2018-09-05T03:56:13.019Z,100522.89
2018-09-05T03:58:41.143Z,100529.71
2018-09-05T04:01:09.436Z,100529.31
2018-09-05T04:03:37.654Z,100524.33
2018-09-05T04:06:05.832Z,100533.07
2018-09-05T04:08:33.984Z,100531.41
2018-09-05T04:11:02.193Z,100531.84
2018-09-05T04:13:30.348Z,100535.66
2018-09-05T04:15:58.736Z,100542.93
2018-09-05T04:18:27.066Z,100541.87
2018-09-05T04:20:55.218Z,100546.88
2018-09-05T04:23:23.413Z,100546.59
2018-09-05T04:25:52.748Z,100554.18
2018-09-05T04:28:20.983Z,100550.86
2018-09-05T04:30:49.284Z,100554.10
2018-09-05T04:33:17.603Z,100555.72
2018-09-05T04:35:45.858Z,100558.69
2018-09-05T04:38:14.010Z,100557.60
2018-09-05T04:40:42.306Z,100560.81
2018-09-05T04:43:10.653Z,100561.86
2018-09-05T04:45:38.801Z,100557.83
2018-09-05T04:48:07.029Z,100558.97
2018-09-05T04:50:35.967Z,100564.41
2018-09-05T04:53:04.228Z,100566.27
2018-09-05T04:55:32.457Z,100572.72
2018-09-05T04:58:00.719Z,100567.30
2018-09-05T05:00:28.942Z,100572.47
2018-09-05T05:02:57.425Z,100574.73
2018-09-05T05:05:25.628Z,100578.41
2018-09-05T05:07:54.071Z,100579.46
2018-09-05T05:10:22.198Z,100582.70
2018-09-05T05:12:50.319Z,100581.66
2018-09-05T05:15:18.413Z,100586.98
2018-09-05T05:17:46.891Z,100583.58
2018-09-05T05:20:15.176Z,100588.24
2018-09-05T05:22:43.406Z,100584.19
2018-09-05T05:25:11.630Z,100589.37
2018-09-05T05:27:39.731Z,100592.05
2018-09-05T05:30:08.005Z,100594.26
2018-09-05T05:32:36.386Z,100598.81
2018-09-05T05:35:04.673Z,100596.78
2018-09-05T05:37:33.001Z,100597.02
2018-09-05T05:40:05.154Z,100594.66
2018-09-05T05:42:33.928Z,100594.45
2018-09-05T05:45:02.406Z,100596.02
2018-09-05T05:47:31.474Z,100600.89
2018-09-05T05:49:59.643Z,100597.91
2018-09-05T05:52:27.808Z,100604.78
2018-09-05T05:54:56.127Z,100605.34
2018-09-05T05:57:24.340Z,100613.00
2018-09-05T05:59:52.674Z,100609.63
2018-09-05T06:02:20.960Z,100610.64
2018-09-05T06:04:49.302Z,100610.76
2018-09-05T06:07:17.556Z,100609.84
2018-09-05T06:09:45.696Z,100618.58
2018-09-05T06:12:13.894Z,100621.06
2018-09-05T06:14:42.065Z,100610.16
2018-09-05T06:17:10.461Z,100620.95
2018-09-05T06:19:38.592Z,100619.31
2018-09-05T06:22:06.865Z,100620.77
2018-09-05T06:24:35.192Z,100629.18
2018-09-05T06:27:03.382Z,100626.78
2018-09-05T06:29:31.570Z,100627.15
2018-09-05T06:31:59.675Z,100623.05
2018-09-05T06:34:27.893Z,100623.67
2018-09-05T06:36:56.092Z,100625.36
2018-09-05T06:39:27.134Z,100626.52
2018-09-05T06:41:57.667Z,100629.63
2018-09-05T06:44:25.961Z,100625.58
2018-09-05T06:46:54.153Z,100623.40
2018-09-05T06:49:22.405Z,100633.56
2018-09-05T06:51:50.561Z,100617.17
2018-09-05T06:54:18.831Z,100618.84
2018-09-05T06:56:46.953Z,100619.66
2018-09-05T06:59:15.049Z,100622.70
2018-09-05T07:01:43.242Z,100620.02
2018-09-05T07:04:11.541Z,100617.02
2018-09-05T07:06:39.712Z,100623.86
2018-09-05T07:09:14.085Z,100624.69
2018-09-05T07:11:42.736Z,100623.31
2018-09-05T07:14:11.477Z,100620.86
2018-09-05T07:16:39.674Z,100626.89
2018-09-05T07:19:09.674Z,100627.41
2018-09-05T07:21:38.120Z,100624.13
2018-09-05T07:24:06.670Z,100625.47
2018-09-05T07:26:35.072Z,100627.93
2018-09-05T07:29:03.517Z,100628.72
2018-09-05T07:31:31.744Z,100631.50
2018-09-05T07:34:00.421Z,100634.49
2018-09-05T07:36:28.657Z,100632.56
2018-09-05T07:38:57.443Z,100632.02
2018-09-05T07:41:25.701Z,100643.46
2018-09-05T07:43:53.993Z,100631.86
2018-09-05T07:46:22.237Z,100634.46
2018-09-05T07:48:50.403Z,100640.43
2018-09-05T07:51:19.633Z,100641.77
2018-09-05T07:53:47.905Z,100634.97
2018-09-05T07:56:16.225Z,100642.85
2018-09-05T07:58:45.116Z,100639.64
2018-09-05T08:01:14.078Z,100641.41
2018-09-05T08:03:42.329Z,100642.83
2018-09-05T08:06:10.562Z,100639.95
2018-09-05T08:08:40.385Z,100646.30
2018-09-05T08:11:08.709Z,100642.89
2018-09-05T08:13:37.092Z,100633.47
2018-09-05T08:16:06.010Z,100631.91
2018-09-05T08:18:34.270Z,100625.88
2018-09-05T08:21:02.508Z,100625.86
2018-09-05T08:23:30.986Z,100629.64
2018-09-05T08:25:59.137Z,100634.02
2018-09-05T08:28:27.455Z,100633.72
2018-09-05T08:30:55.680Z,100632.59
2018-09-05T08:33:23.912Z,100632.55
2018-09-05T08:35:52.951Z,100630.21
2018-09-05T08:38:20.809Z,100627.50
2018-09-05T08:40:49.869Z,100629.11
2018-09-05T08:43:17.996Z,100634.75
2018-09-05T08:45:46.294Z,100634.23
2018-09-05T08:48:14.380Z,100638.02
2018-09-05T08:50:42.495Z,100635.44
2018-09-05T08:53:10.640Z,100636.94
2018-09-05T08:55:38.837Z,100633.16
2018-09-05T08:58:07.228Z,100627.14
2018-09-05T09:00:35.453Z,100635.79
2018-09-05T09:03:03.850Z,100625.83
2018-09-05T09:05:31.932Z,100635.51
2018-09-05T09:08:00.244Z,100630.54
2018-09-05T09:10:28.536Z,100634.95
2018-09-05T09:12:56.917Z,100636.58
2018-09-05T09:15:25.046Z,100631.02
2018-09-05T09:17:53.300Z,100631.64
2018-09-05T09:20:21.478Z,100625.20
2018-09-05T09:22:50.216Z,100626.40
2018-09-05T09:25:18.419Z,100627.64
2018-09-05T09:27:46.663Z,100635.97
2018-09-05T09:30:14.870Z,100630.50
2018-09-05T09:32:42.989Z,100625.20
2018-09-05T09:35:11.276Z,100619.66
2018-09-05T09:37:41.696Z,100623.61
2018-09-05T09:40:11.131Z,100617.05
2018-09-05T09:42:40.117Z,100613.45
2018-09-05T09:45:09.375Z,100611.86
2018-09-05T09:47:37.581Z,100615.59
2018-09-05T09:50:05.919Z,100607.29
2018-09-05T09:52:37.134Z,100607.77
2018-09-05T09:55:07.736Z,100605.12
2018-09-05T09:57:36.361Z,100602.95
2018-09-05T10:00:05.684Z,100602.42
2018-09-05T10:02:40.433Z,100589.36
2018-09-05T10:05:14.627Z,100594.44
2018-09-05T10:07:48.529Z,100590.28
2018-09-05T10:10:22.835Z,100582.23
2018-09-05T10:12:56.915Z,100585.67
2018-09-05T10:15:30.909Z,100587.17
2018-09-05T10:18:04.721Z,100573.40
2018-09-05T10:20:33.000Z,100574.88
2018-09-05T10:23:01.260Z,100573.58
2018-09-05T10:25:29.433Z,100576.78
2018-09-05T10:27:57.596Z,100579.72
2018-09-05T10:30:25.725Z,100577.41
2018-09-05T10:32:54.162Z,100576.16
2018-09-05T10:35:22.433Z,100576.61
2018-09-05T10:37:50.658Z,100571.63
2018-09-05T10:40:18.794Z,100573.80
2018-09-05T10:42:47.565Z,100567.45
2018-09-05T10:45:15.762Z,100562.00
2018-09-05T10:47:44.144Z,100563.88
2018-09-05T10:50:12.242Z,100563.33
2018-09-05T10:52:40.681Z,100551.79
2018-09-05T10:55:08.839Z,100554.11
2018-09-05T10:57:36.998Z,100555.20
2018-09-05T11:00:05.521Z,100548.78
2018-09-05T11:02:33.631Z,100544.36
2018-09-05T11:05:02.945Z,100537.41
2018-09-05T11:07:31.059Z,100527.86
2018-09-05T11:09:59.406Z,100531.70
2018-09-05T11:12:27.516Z,100524.16
2018-09-05T11:14:55.651Z,100530.42
2018-09-05T11:17:23.766Z,100532.19
2018-09-05T11:19:51.958Z,100527.19
2018-09-05T11:22:20.079Z,100516.97
2018-09-05T11:24:48.240Z,100519.14
2018-09-05T11:27:16.317Z,100510.78
2018-09-05T11:29:44.694Z,100512.09
2018-09-05T11:32:12.895Z,100514.40
2018-09-05T11:34:41.089Z,100506.91
2018-09-05T11:37:09.257Z,100509.84
2018-09-05T11:39:37.400Z,100507.59
2018-09-05T11:42:05.624Z,100502.35
2018-09-05T11:44:33.865Z,100501.27
2018-09-05T11:47:02.235Z,100501.29
2018-09-05T11:49:30.431Z,100503.16
2018-09-05T11:51:58.622Z,100498.15
2018-09-05T11:54:26.744Z,100505.14
2018-09-05T11:56:54.901Z,100490.21
2018-09-05T11:59:23.030Z,100495.30
2018-09-05T12:01:51.228Z,100487.79
2018-09-05T12:04:19.398Z,100488.67
2018-09-05T12:06:47.684Z,100489.34
2018-09-05T12:09:15.881Z,100489.18
2018-09-05T12:11:44.144Z,100480.82
2018-09-05T12:14:12.284Z,100484.86
2018-09-05T12:16:40.494Z,100482.95
2018-09-05T12:19:08.834Z,100481.36
2018-09-05T12:21:36.970Z,100476.96
2018-09-05T12:24:05.126Z,100475.94
2018-09-05T12:26:33.592Z,100479.64
2018-09-05T12:29:04.374Z,100474.61
2018-09-05T12:31:33.490Z,100474.14
2018-09-05T12:34:01.770Z,100465.97
2018-09-05T12:36:29.998Z,100479.62
2018-09-05T12:38:58.345Z,100472.48
2018-09-05T12:41:26.624Z,100463.13
2018-09-05T12:43:54.807Z,100463.17
2018-09-05T12:46:22.972Z,100467.35
2018-09-05T12:48:51.162Z,100461.89
2018-09-05T12:51:19.436Z,100456.50
2018-09-05T12:53:47.616Z,100451.56
2018-09-05T12:56:15.870Z,100448.56
2018-09-05T12:58:44.159Z,100440.97
2018-09-05T13:01:12.503Z,100449.03
2018-09-05T13:03:40.741Z,100443.04
2018-09-05T13:06:09.000Z,100448.84
2018-09-05T13:08:37.206Z,100441.74
2018-09-05T13:11:06.111Z,100430.08
2018-09-05T13:13:34.269Z,100429.10
2018-09-05T13:16:02.607Z,100431.28
2018-09-05T13:18:30.757Z,100429.05
2018-09-05T13:20:59.021Z,100430.37
2018-09-05T13:23:27.179Z,100427.20
2018-09-05T13:25:55.409Z,100424.85
2018-09-05T13:28:23.635Z,100419.78
2018-09-05T13:30:51.803Z,100421.30
2018-09-05T13:33:20.053Z,100416.77
2018-09-05T13:35:48.191Z,100425.58
2018-09-05T13:38:16.483Z,100428.49
2018-09-05T13:40:44.797Z,100425.30
2018-09-05T13:43:13.047Z,100423.49
2018-09-05T13:45:41.298Z,100418.92
2018-09-05T13:48:09.590Z,100429.98
2018-09-05T13:50:37.911Z,100417.58
2018-09-05T13:53:06.453Z,100417.36
2018-09-05T13:55:34.600Z,100421.16
2018-09-05T13:58:02.808Z,100421.28
2018-09-05T14:00:30.946Z,100414.00
2018-09-05T14:02:59.445Z,100407.91
2018-09-05T14:05:27.758Z,100406.59
2018-09-05T14:07:56.029Z,100404.41
2018-09-05T14:10:24.224Z,100401.25
2018-09-05T14:12:53.004Z,100405.44
2018-09-05T14:15:21.271Z,100404.38
2018-09-05T14:17:49.543Z,100395.91
2018-09-05T14:20:17.826Z,100398.01
2018-09-05T14:22:45.994Z,100397.14
2018-09-05T14:25:14.178Z,100393.36
2018-09-05T14:27:43.060Z,100401.38
2018-09-05T14:30:11.210Z,100395.70
2018-09-05T14:32:39.552Z,100398.34
2018-09-05T14:35:07.808Z,100398.62
2018-09-05T14:37:36.122Z,100395.69
2018-09-05T14:40:04.427Z,100390.39
2018-09-05T14:42:32.519Z,100393.83
2018-09-05T14:45:00.759Z,100385.84
2018-09-05T14:47:28.948Z,100389.88
2018-09-05T14:49:57.177Z,100388.14
2018-09-05T14:52:25.369Z,100385.47
2018-09-05T14:54:53.589Z,100393.22
2018-09-05T14:57:22.430Z,100386.16
2018-09-05T14:59:50.692Z,100384.52
2018-09-05T15:02:19.520Z,100384.18
2018-09-05T15:04:47.707Z,100382.96
2018-09-05T15:07:16.300Z,100376.44
2018-09-05T15:09:44.528Z,100385.87
2018-09-05T15:12:12.743Z,100380.95
2018-09-05T15:14:40.865Z,100382.13
2018-09-05T15:17:09.126Z,100383.11
2018-09-05T15:19:37.264Z,100380.13
2018-09-05T15:22:05.477Z,100372.70
2018-09-05T15:24:33.657Z,100373.06
2018-09-05T15:27:01.859Z,100368.53
2018-09-05T15:29:29.976Z,100369.16
2018-09-05T15:31:58.222Z,100365.11
2018-09-05T15:34:26.505Z,100365.58
2018-09-05T15:36:54.759Z,100362.08
2018-09-05T15:39:23.087Z,100364.89
2018-09-05T15:41:51.183Z,100363.02
2018-09-05T15:44:19.451Z,100358.30
2018-09-05T15:46:47.681Z,100354.58
2018-09-05T15:49:15.997Z,100355.88
2018-09-05T15:51:44.209Z,100355.19
2018-09-05T15:54:12.491Z,100352.16
2018-09-05T15:56:40.860Z,100349.41
2018-09-05T15:59:09.000Z,100354.01
2018-09-05T16:01:37.333Z,100353.33
2018-09-05T16:04:05.676Z,100350.56
2018-09-05T16:06:34.170Z,100350.05
2018-09-05T16:09:02.374Z,100346.55
2018-09-05T16:11:30.676Z,100343.36
2018-09-05T16:13:58.764Z,100352.83
2018-09-05T16:16:27.099Z,100347.38
2018-09-05T16:18:55.212Z,100351.97
2018-09-05T16:21:23.465Z,100350.41
2018-09-05T16:23:51.728Z,100347.16
2018-09-05T16:26:20.079Z,100346.10
2018-09-05T16:28:48.525Z,100348.33
2018-09-05T16:31:16.606Z,100351.68
2018-09-05T16:33:44.895Z,100342.30
2018-09-05T16:36:13.094Z,100345.06
2018-09-05T16:38:41.912Z,100346.16
2018-09-05T16:41:10.048Z,100346.98
2018-09-05T16:43:38.376Z,100343.99
2018-09-05T16:46:07.267Z,100347.40
2018-09-05T16:48:35.628Z,100353.98
2018-09-05T16:51:03.805Z,100355.23
2018-09-05T16:53:32.063Z,100350.59
2018-09-05T16:56:00.221Z,100355.20
2018-09-05T16:58:29.264Z,100354.17
2018-09-05T17:00:57.463Z,100358.52
2018-09-05T17:03:25.717Z,100356.30
2018-09-05T17:05:53.820Z,100355.87
2018-09-05T17:08:22.873Z,100355.68
2018-09-05T17:10:51.328Z,100357.44
2018-09-05T17:13:19.631Z,100356.38
2018-09-05T17:15:47.841Z,100355.89
2018-09-05T17:18:16.160Z,100354.63
2018-09-05T17:20:44.368Z,100350.89
2018-09-05T17:23:12.958Z,100359.03
2018-09-05T17:25:41.419Z,100360.91
2018-09-05T17:28:09.714Z,100355.45
2018-09-05T17:30:37.855Z,100354.40
2018-09-05T17:33:06.965Z,100359.73
2018-09-05T17:35:35.070Z,100356.49
2018-09-05T17:38:03.258Z,100357.48
2018-09-05T17:40:31.492Z,100353.30
2018-09-05T17:42:59.729Z,100352.55
2018-09-05T17:45:27.850Z,100350.06
2018-09-05T17:47:56.061Z,100361.08
2018-09-05T17:50:24.544Z,100355.45
2018-09-05T17:52:52.701Z,100348.86
2018-09-05T17:55:20.841Z,100361.85
2018-09-05T17:57:49.795Z,100354.62
2018-09-05T18:00:18.112Z,100356.38
2018-09-05T18:02:46.258Z,100352.94
2018-09-05T18:05:14.421Z,100356.59
2018-09-05T18:07:42.793Z,100353.97
2018-09-05T18:10:11.770Z,100361.72
2018-09-05T18:12:39.867Z,100362.39
2018-09-05T18:15:08.041Z,100363.36
2018-09-05T18:17:36.157Z,100367.05
2018-09-05T18:20:04.470Z,100367.33
2018-09-05T18:22:32.595Z,100366.27
2018-09-05T18:25:00.787Z,100375.42
2018-09-05T18:27:35.760Z,100370.54
2018-09-05T18:30:04.638Z,100367.31
2018-09-05T18:32:32.947Z,100370.38
2018-09-05T18:35:01.196Z,100377.59
2018-09-05T18:37:29.318Z,100377.69
2018-09-05T18:40:04.470Z,100381.32
2018-09-05T18:42:32.690Z,100380.25
2018-09-05T18:45:00.861Z,100379.47
2018-09-05T18:47:29.067Z,100377.38
2018-09-05T18:49:57.304Z,100382.93
2018-09-05T18:52:25.445Z,100373.95
2018-09-05T18:54:53.722Z,100374.22
2018-09-05T18:57:21.932Z,100377.05
2018-09-05T18:59:50.420Z,100374.61
2018-09-05T19:02:18.702Z,100374.95
2018-09-05T19:04:46.955Z,100374.70
2018-09-05T19:07:15.166Z,100380.20
2018-09-05T19:09:43.494Z,100367.36
2018-09-05T19:12:12.239Z,100378.68
2018-09-05T19:14:40.462Z,100366.92
2018-09-05T19:17:08.825Z,100369.95
2018-09-05T19:19:37.570Z,100374.91
2018-09-05T19:22:05.964Z,100373.53
2018-09-05T19:24:34.004Z,100371.13
2018-09-05T19:27:02.104Z,100375.78
2018-09-05T19:29:30.401Z,100377.48
2018-09-05T19:31:58.571Z,100370.67
2018-09-05T19:34:26.856Z,100376.73
2018-09-05T19:36:55.854Z,100371.33
2018-09-05T19:39:24.691Z,100369.48
2018-09-05T19:41:52.779Z,100373.05
2018-09-05T19:44:21.028Z,100370.60
2018-09-05T19:46:49.177Z,100375.31
2018-09-05T19:49:17.592Z,100372.00
2018-09-05T19:51:45.663Z,100372.89
2018-09-05T19:54:13.941Z,100370.72
2018-09-05T19:56:42.293Z,100367.50
2018-09-05T19:59:10.582Z,100373.28
2018-09-05T20:01:38.700Z,100366.44
2018-09-05T20:04:06.938Z,100368.40
2018-09-05T20:06:35.253Z,100369.77
2018-09-05T20:09:05.215Z,100365.61
2018-09-05T20:11:34.805Z,100368.61
2018-09-05T20:14:03.183Z,100372.17
2018-09-05T20:16:31.652Z,100372.72
2018-09-05T20:19:00.193Z,100371.70
2018-09-05T20:21:28.710Z,100370.38
2018-09-05T20:23:57.358Z,100364.66
2018-09-05T20:26:25.490Z,100366.61
2018-09-05T20:28:53.781Z,100372.08
2018-09-05T20:31:22.609Z,100370.75
2018-09-05T20:33:50.806Z,100370.45
2018-09-05T20:36:19.062Z,100371.57
2018-09-05T20:38:48.054Z,100366.93
2018-09-05T20:41:16.353Z,100368.84
2018-09-05T20:43:44.575Z,100364.99
2018-09-05T20:46:12.655Z,100366.13
2018-09-05T20:48:41.221Z,100368.28
2018-09-05T20:51:09.324Z,100367.20
2018-09-05T20:53:37.465Z,100366.64
2018-09-05T20:56:07.363Z,100365.03
2018-09-05T20:58:35.643Z,100360.39
2018-09-05T21:01:04.407Z,100361.75
2018-09-05T21:03:32.509Z,100362.28
2018-09-05T21:06:00.610Z,100361.19
2018-09-05T21:08:28.718Z,100360.64
2018-09-05T21:10:56.867Z,100362.02
2018-09-05T21:13:25.401Z,100361.47
2018-09-05T21:15:53.499Z,100363.10
2018-09-05T21:18:21.664Z,100359.02
2018-09-05T21:20:49.905Z,100362.84
2018-09-05T21:23:18.062Z,100360.66
2018-09-05T21:25:46.402Z,100354.91
2018-09-05T21:28:14.558Z,100357.38
2018-09-05T21:30:42.829Z,100352.17
2018-09-05T21:33:11.051Z,100351.92
2018-09-05T21:35:39.226Z,100349.45
2018-09-05T21:38:07.465Z,100351.90
2018-09-05T21:40:35.559Z,100353.50
2018-09-05T21:43:04.770Z,100348.05
2018-09-05T21:45:33.312Z,100347.48
2018-09-05T21:48:01.627Z,100346.37
2018-09-05T21:50:29.963Z,100346.64
2018-09-05T21:52:58.098Z,100352.63
2018-09-05T21:55:26.343Z,100357.04
2018-09-05T21:57:54.520Z,100351.56
2018-09-05T22:00:22.745Z,100355.37
2018-09-05T22:02:51.022Z,100352.34
2018-09-05T22:05:19.172Z,100346.08
2018-09-05T22:07:47.444Z,100351.27
2018-09-05T22:10:15.641Z,100342.55
2018-09-05T22:12:43.949Z,100343.59
2018-09-05T22:15:12.228Z,100346.57
2018-09-05T22:17:40.514Z,100342.73
2018-09-05T22:20:08.948Z,100340.80
2018-09-05T22:22:37.117Z,100336.16
2018-09-05T22:25:05.274Z,100339.97
2018-09-05T22:27:33.575Z,100339.96
2018-09-05T22:30:01.720Z,100344.08
2018-09-05T22:32:29.816Z,100343.00
2018-09-05T22:34:57.990Z,100336.16
2018-09-05T22:37:26.108Z,100335.33
2018-09-05T22:39:54.346Z,100341.08
2018-09-05T22:42:22.648Z,100339.67
2018-09-05T22:45:07.829Z,100342.96
2018-09-05T22:49:01.600Z,100348.16
2018-09-05T22:53:08.200Z,100343.21
2018-09-05T22:58:53.892Z,100344.48
2018-09-05T23:01:56.620Z,100340.88
2018-09-05T23:04:56.630Z,100333.79
2018-09-05T23:08:35.512Z,100332.16
2018-09-05T23:11:20.950Z,100332.13
2018-09-05T23:15:04.930Z,100334.30
2018-09-05T23:22:04.960Z,100330.98
2018-09-05T23:24:33.062Z,100325.42
2018-09-05T23:27:01.511Z,100326.52
2018-09-05T23:29:29.623Z,100322.16
2018-09-05T23:31:57.710Z,100320.03
2018-09-05T23:34:26.054Z,100316.77
2018-09-05T23:36:54.208Z,100314.34
2018-09-05T23:39:22.498Z,100318.75
2018-09-05T23:41:50.816Z,100310.54
2018-09-05T23:44:18.963Z,100316.73
2018-09-05T23:46:47.127Z,100310.42
2018-09-05T23:49:15.434Z,100318.02
2018-09-05T23:51:43.554Z,100310.70
2018-09-05T23:54:11.828Z,100299.46
2018-09-05T23:56:40.126Z,100304.62
2018-09-05T23:59:08.427Z,100310.37
